Time;durP1;ratioP1;P1;durP2;ratioP2;P2;SDS_P1;SDS_P2;PMS_P1;PMS_P2;Temp;Humidity;BMP_temperature;BMP_pressure;BME280_temperature;BME280_humidity;BME280_pressure;Samples;Min_cycle;Max_cycle;Signal;HPM_P1;HPM_P2
2023/03/30 00:00:00;;;;;;;1999.90;999.90;;;14.80;99.90;;;;;;5031386;28;20415;-66
2023/03/30 00:02:30;;;;;;;1999.90;999.90;;;14.80;99.90;;;;;;5034283;28;20793;-67
2023/03/30 00:05:01;;;;;;;1999.90;999.90;;;14.70;99.90;;;;;;5034928;28;20398;-68
2023/03/30 00:07:29;;;;;;;1999.90;999.90;;;14.70;99.90;;;;;;5034865;28;20429;-67
2023/03/30 00:09:55;;;;;;;1999.90;999.90;;;14.60;99.90;;;;;;5034996;28;20395;-68
2023/03/30 00:12:21;;;;;;;1999.90;999.90;;;14.60;99.90;;;;;;5034619;28;20402;-69
2023/03/30 00:14:47;;;;;;;1999.90;999.90;;;14.60;99.90;;;;;;5034406;28;20413;-69
2023/03/30 00:17:13;;;;;;;1999.90;999.90;;;14.60;99.90;;;;;;5034450;28;20228;-68
2023/03/30 00:19:39;;;;;;;1999.90;999.90;;;14.60;99.90;;;;;;5034596;28;20441;-68
2023/03/30 00:22:06;;;;;;;1999.90;999.90;;;14.50;99.90;;;;;;5034716;28;20232;-68
2023/03/30 00:24:32;;;;;;;1999.90;999.90;;;14.50;99.90;;;;;;5034178;28;20402;-68
2023/03/30 00:26:57;;;;;;;1999.90;999.90;;;14.50;99.90;;;;;;5034192;28;20516;-68
2023/03/30 00:29:23;;;;;;;1999.90;999.90;;;14.50;99.90;;;;;;5034270;28;20175;-68
2023/03/30 00:31:48;;;;;;;1999.90;999.90;;;14.60;99.90;;;;;;5034233;28;20168;-68
2023/03/30 00:34:14;;;;;;;1999.90;999.90;;;14.60;99.90;;;;;;5034006;28;20176;-68
2023/03/30 00:36:39;;;;;;;1999.90;999.90;;;14.70;99.90;;;;;;5034212;28;20658;-67
2023/03/30 00:39:07;;;;;;;1999.90;999.90;;;14.80;99.90;;;;;;5034207;28;20192;-67
2023/03/30 00:41:34;;;;;;;1999.90;999.90;;;14.80;99.90;;;;;;5034200;28;20258;-68
2023/03/30 00:44:04;;;;;;;1999.90;999.90;;;14.90;99.90;;;;;;5033957;28;20436;-67
2023/03/30 00:46:30;;;;;;;1999.90;999.90;;;15.10;99.90;;;;;;5033882;28;20453;-67
2023/03/30 00:49:08;;;;;;;1999.90;999.90;;;15.00;99.90;;;;;;5034158;28;20401;-68
2023/03/30 00:51:36;;;;;;;1999.90;999.90;;;15.00;99.90;;;;;;5033948;28;20409;-68
2023/03/30 00:54:16;;;;;;;1999.90;999.90;;;15.10;99.90;;;;;;5033699;28;20407;-67
2023/03/30 00:56:42;;;;;;;1999.90;999.90;;;15.00;99.90;;;;;;5033889;28;20505;-68
2023/03/30 00:59:08;;;;;;;1999.90;999.90;;;15.00;99.90;;;;;;5033836;28;20969;-68
2023/03/30 01:01:37;;;;;;;1999.90;999.90;;;14.90;99.90;;;;;;5033909;28;20226;-69
2023/03/30 01:04:04;;;;;;;1999.90;999.90;;;14.80;99.90;;;;;;5034096;28;20403;-67
2023/03/30 01:06:33;;;;;;;1999.90;999.90;;;14.90;99.90;;;;;;5033946;28;20455;-68
2023/03/30 01:08:58;;;;;;;1999.90;999.90;;;14.90;99.90;;;;;;5033660;28;20397;-68
2023/03/30 01:11:25;;;;;;;1999.90;999.90;;;14.90;99.90;;;;;;5033123;28;20829;-69
2023/03/30 01:14:02;;;;;;;1999.90;999.90;;;14.90;99.90;;;;;;5033399;28;20216;-68
2023/03/30 01:16:37;;;;;;;1999.90;999.90;;;15.10;99.90;;;;;;5033506;28;20469;-68
2023/03/30 01:19:17;;;;;;;1999.90;999.90;;;15.20;99.90;;;;;;5033537;28;20394;-68
2023/03/30 01:22:13;;;;;;;1999.90;999.90;;;15.40;99.90;;;;;;5033345;28;20398;-69
2023/03/30 01:24:48;;;;;;;1999.90;999.90;;;15.50;99.90;;;;;;5033538;28;20390;-69
2023/03/30 01:27:50;;;;;;;1999.90;999.90;;;15.70;99.90;;;;;;5033198;28;20461;-69
2023/03/30 01:30:30;;;;;;;1999.90;999.90;;;15.70;99.90;;;;;;5033131;28;20776;-69
2023/03/30 01:33:13;;;;;;;1999.90;999.90;;;15.80;99.90;;;;;;5033287;28;20406;-70
2023/03/30 01:35:57;;;;;;;1999.90;999.90;;;15.90;99.90;;;;;;5033253;28;20432;-68
2023/03/30 01:38:41;;;;;;;1999.90;999.90;;;15.80;99.90;;;;;;5033000;28;20418;-68
2023/03/30 01:41:21;;;;;;;1999.90;999.90;;;15.70;99.90;;;;;;5033020;28;20395;-68
2023/03/30 01:44:06;;;;;;;1999.90;999.90;;;15.60;99.90;;;;;;5034684;28;20480;-67
2023/03/30 01:46:39;;;;;;;1999.90;999.90;;;15.50;99.90;;;;;;5034941;28;20457;-67
2023/03/30 01:49:35;;;;;;;1999.90;999.90;;;15.60;99.90;;;;;;5035294;28;20391;-67
2023/03/30 01:52:07;;;;;;;1999.90;999.90;;;15.60;99.90;;;;;;5033860;28;20917;-68
2023/03/30 01:54:42;;;;;;;1999.90;999.90;;;15.70;99.90;;;;;;5032885;28;20470;-68
2023/03/30 01:57:12;;;;;;;1999.90;999.90;;;15.80;99.90;;;;;;5032514;28;20422;-68
2023/03/30 01:59:51;;;;;;;1999.90;999.90;;;16.10;99.90;;;;;;5032695;28;20407;-68
2023/03/30 02:02:19;;;;;;;1999.90;999.90;;;16.20;99.90;;;;;;5032576;28;20426;-68
2023/03/30 02:04:47;;;;;;;1999.90;999.90;;;16.40;99.90;;;;;;5032597;28;20414;-68
2023/03/30 02:07:21;;;;;;;1999.90;999.90;;;16.40;99.90;;;;;;5032207;28;20472;-68
2023/03/30 02:09:49;;;;;;;1999.90;999.90;;;16.50;99.90;;;;;;5032785;28;21074;-68
2023/03/30 02:12:16;;;;;;;1999.90;999.90;;;16.60;99.90;;;;;;5032602;28;20403;-68
2023/03/30 02:14:42;;;;;;;1999.90;999.90;;;16.60;99.90;;;;;;5032414;28;20751;-68
2023/03/30 02:17:17;;;;;;;1999.90;999.90;;;16.70;99.90;;;;;;5032430;28;20543;-68
2023/03/30 02:19:47;;;;;;;1999.90;999.90;;;16.60;99.90;;;;;;5034394;28;20181;-68
2023/03/30 02:22:16;;;;;;;1999.90;999.90;;;16.50;99.90;;;;;;5034376;28;21026;-68
2023/03/30 02:24:45;;;;;;;1999.90;999.90;;;16.40;99.90;;;;;;5033569;28;20441;-67
2023/03/30 02:27:11;;;;;;;1999.90;999.90;;;16.20;99.90;;;;;;5034533;28;20485;-67
2023/03/30 02:29:40;;;;;;;1999.90;999.90;;;16.10;99.90;;;;;;5034370;28;20414;-68
2023/03/30 02:32:32;;;;;;;1999.90;999.90;;;16.00;99.90;;;;;;5032100;28;20435;-68
2023/03/30 02:35:07;;;;;;;1999.90;999.90;;;15.90;99.90;;;;;;5031791;28;20413;-68
2023/03/30 02:37:45;;;;;;;1999.90;999.90;;;15.80;99.90;;;;;;5033294;28;20463;-67
2023/03/30 02:40:40;;;;;;;1999.90;999.90;;;15.70;99.90;;;;;;5034389;28;20399;-67
2023/03/30 02:43:14;;;;;;;1999.90;999.90;;;15.70;99.90;;;;;;5031747;28;20468;-68
2023/03/30 02:45:51;;;;;;;1999.90;999.90;;;15.80;99.90;;;;;;5032050;28;20455;-68
2023/03/30 02:48:31;;;;;;;1999.90;999.90;;;15.80;99.90;;;;;;5031929;28;20487;-68
2023/03/30 02:51:08;;;;;;;1999.90;999.90;;;15.70;99.90;;;;;;5031890;28;20411;-68
2023/03/30 02:53:50;;;;;;;1999.90;999.90;;;15.70;99.90;;;;;;5031727;28;20436;-68
2023/03/30 02:56:32;;;;;;;1999.90;999.90;;;15.70;99.90;;;;;;5031917;28;20782;-68
2023/03/30 02:59:11;;;;;;;1999.90;999.90;;;15.50;99.90;;;;;;5031912;28;20402;-68
2023/03/30 03:02:07;;;;;;;1999.90;999.90;;;15.50;99.90;;;;;;5031835;28;20392;-68
2023/03/30 03:04:34;;;;;;;1999.90;999.90;;;15.50;99.90;;;;;;5030390;28;20967;-68
2023/03/30 03:07:01;;;;;;;1999.90;999.90;;;15.50;99.90;;;;;;5031863;28;20486;-68
2023/03/30 03:09:28;;;;;;;1999.90;999.90;;;15.50;99.90;;;;;;5031699;28;20412;-68
2023/03/30 03:11:54;;;;;;;1999.90;999.90;;;15.40;99.90;;;;;;5031787;28;20479;-68
2023/03/30 03:14:20;;;;;;;1999.90;999.90;;;15.40;99.90;;;;;;5031539;28;20403;-68
2023/03/30 03:16:46;;;;;;;1999.90;999.90;;;15.40;99.90;;;;;;5032166;28;20480;-67
2023/03/30 03:19:11;;;;;;;1999.90;999.90;;;15.40;99.90;;;;;;5034017;28;20587;-66
2023/03/30 03:21:37;;;;;;;1999.90;999.90;;;15.40;99.90;;;;;;5034034;28;20414;-68
2023/03/30 03:24:04;;;;;;;1999.90;999.90;;;15.30;99.90;;;;;;5033828;28;20178;-68
2023/03/30 03:26:29;;;;;;;1999.90;999.90;;;15.40;99.90;;;;;;5033469;28;20453;-67
2023/03/30 03:28:55;;;;;;;1999.90;999.90;;;15.30;99.90;;;;;;5033788;28;20429;-68
2023/03/30 03:31:23;;;;;;;1999.90;999.90;;;15.20;99.90;;;;;;5033967;28;20507;-68
2023/03/30 03:33:49;;;;;;;1999.90;999.90;;;15.10;99.90;;;;;;5033476;28;20174;-67
2023/03/30 03:36:15;;;;;;;1999.90;999.90;;;15.20;99.90;;;;;;5036557;28;20416;-68
2023/03/30 03:38:40;;;;;;;1999.90;999.90;;;15.00;99.90;;;;;;5037698;28;20499;-67
2023/03/30 03:41:07;;;;;;;1999.90;999.90;;;15.00;99.90;;;;;;5037526;28;20228;-67
2023/03/30 03:43:32;;;;;;;1999.90;999.90;;;14.90;99.90;;;;;;5037227;28;20173;-67
2023/03/30 03:45:58;;;;;;;1999.90;999.90;;;14.80;99.90;;;;;;5038206;28;20497;-67
2023/03/30 03:48:24;;;;;;;1999.90;999.90;;;14.70;99.90;;;;;;5037882;28;20714;-68
2023/03/30 03:50:52;;;;;;;1999.90;999.90;;;14.60;99.90;;;;;;5037676;28;20526;-67
2023/03/30 03:53:19;;;;;;;1999.90;999.90;;;14.60;99.90;;;;;;5037647;28;20433;-67
2023/03/30 03:55:45;;;;;;;1999.90;999.90;;;14.50;99.90;;;;;;5037449;28;20461;-67
2023/03/30 03:58:11;;;;;;;1999.90;999.90;;;14.40;99.90;;;;;;5037230;28;20437;-67
2023/03/30 04:00:37;;;;;;;1999.90;999.90;;;14.30;99.90;;;;;;5037632;28;20773;-67
2023/03/30 04:03:03;;;;;;;1999.90;999.90;;;14.40;99.90;;;;;;5037369;28;20785;-68
2023/03/30 04:05:29;;;;;;;1999.90;999.90;;;14.40;99.90;;;;;;5037587;28;20468;-67
2023/03/30 04:07:55;;;;;;;1999.90;999.90;;;14.40;99.90;;;;;;5036813;28;20432;-67
2023/03/30 04:10:22;;;;;;;1999.90;999.90;;;14.40;99.90;;;;;;5037794;28;20630;-68
2023/03/30 04:12:47;;;;;;;1999.90;999.90;;;14.40;99.90;;;;;;5036834;28;20398;-68
2023/03/30 04:15:13;;;;;;;1999.90;999.90;;;14.40;99.90;;;;;;5037128;28;20778;-67
2023/03/30 04:17:38;;;;;;;1999.90;999.90;;;14.40;99.90;;;;;;5036650;28;20214;-67
2023/03/30 04:20:10;;;;;;;1999.90;999.90;;;14.40;99.90;;;;;;5037029;28;20178;-68
2023/03/30 04:22:40;;;;;;;1999.90;999.90;;;14.50;99.90;;;;;;5036262;28;20160;-68
2023/03/30 04:25:10;;;;;;;1999.90;999.90;;;14.60;99.90;;;;;;5034375;28;20905;-68
2023/03/30 04:27:36;;;;;;;1999.90;999.90;;;14.80;99.90;;;;;;5034389;28;20468;-68
2023/03/30 04:30:05;;;;;;;1999.90;999.90;;;14.80;99.90;;;;;;5034462;28;20400;-68
2023/03/30 04:32:37;;;;;;;1999.90;999.90;;;14.90;99.90;;;;;;5034129;28;20407;-68
2023/03/30 04:35:07;;;;;;;1999.90;999.90;;;15.00;99.90;;;;;;5034371;28;20422;-68
2023/03/30 04:37:34;;;;;;;1999.90;999.90;;;15.20;99.90;;;;;;5034013;28;20452;-68
2023/03/30 04:40:01;;;;;;;1999.90;999.90;;;15.20;99.90;;;;;;5034110;28;20489;-68
2023/03/30 04:42:36;;;;;;;1999.90;999.90;;;15.30;99.90;;;;;;5034118;28;20428;-68
2023/03/30 04:45:03;;;;;;;1999.90;999.90;;;15.40;99.90;;;;;;5033951;28;20503;-68
2023/03/30 04:47:29;;;;;;;1999.90;999.90;;;15.30;99.90;;;;;;5032806;28;20451;-68
2023/03/30 04:49:55;;;;;;;1999.90;999.90;;;15.40;99.90;;;;;;5034003;28;20407;-68
2023/03/30 04:52:21;;;;;;;1999.90;999.90;;;15.40;99.90;;;;;;5033980;28;20895;-69
2023/03/30 04:54:47;;;;;;;1999.90;999.90;;;15.50;99.90;;;;;;5033805;28;20176;-68
2023/03/30 04:57:13;;;;;;;1999.90;999.90;;;15.50;99.90;;;;;;5033934;28;20473;-68
2023/03/30 04:59:43;;;;;;;1999.90;999.90;;;15.50;99.90;;;;;;5034164;28;20175;-69
2023/03/30 05:02:10;;;;;;;1999.90;999.90;;;15.50;99.90;;;;;;5033842;28;20415;-69
2023/03/30 05:04:36;;;;;;;1999.90;999.90;;;15.50;99.90;;;;;;5033728;28;20545;-68
2023/03/30 05:07:03;;;;;;;1999.90;999.90;;;15.50;99.90;;;;;;5034212;28;20465;-68
2023/03/30 05:09:28;;;;;;;1999.90;999.90;;;15.60;99.90;;;;;;5034103;28;20468;-69
2023/03/30 05:11:54;;;;;;;1999.90;999.90;;;15.60;99.90;;;;;;5034169;28;20397;-69
2023/03/30 05:14:20;;;;;;;1999.90;999.90;;;15.60;99.90;;;;;;5033608;28;20168;-69
2023/03/30 05:16:46;;;;;;;1999.90;999.90;;;15.60;99.90;;;;;;5033757;28;20245;-70
2023/03/30 05:19:11;;;;;;;1999.90;999.90;;;15.60;99.90;;;;;;5033816;28;20183;-69
2023/03/30 05:21:37;;;;;;;1999.90;999.90;;;15.60;99.90;;;;;;5033772;28;20398;-68
2023/03/30 05:24:03;;;;;;;1999.90;999.90;;;15.60;99.90;;;;;;5033206;28;20172;-68
2023/03/30 05:26:28;;;;;;;1999.90;999.90;;;15.60;99.90;;;;;;5033083;28;20595;-68
2023/03/30 05:28:54;;;;;;;1999.90;999.90;;;15.60;99.90;;;;;;5033210;28;20176;-68
2023/03/30 05:31:20;;;;;;;1999.90;999.90;;;15.50;99.90;;;;;;5033108;28;20177;-68
2023/03/30 05:33:46;;;;;;;1999.90;999.90;;;15.50;99.90;;;;;;5033179;28;20202;-67
2023/03/30 05:36:12;;;;;;;1999.90;999.90;;;15.40;99.90;;;;;;5035061;28;20414;-68
2023/03/30 05:38:38;;;;;;;1999.90;999.90;;;15.50;99.90;;;;;;5035338;28;20171;-68
2023/03/30 05:41:05;;;;;;;1999.90;999.90;;;15.40;99.90;;;;;;5035525;28;20429;-67
2023/03/30 05:43:33;;;;;;;1999.90;999.90;;;15.40;99.90;;;;;;5034990;28;20184;-67
2023/03/30 05:46:01;;;;;;;1999.90;999.90;;;15.40;99.90;;;;;;5035113;28;20487;-67
2023/03/30 05:48:27;;;;;;;1999.90;999.90;;;15.40;99.90;;;;;;5035301;28;20446;-67
2023/03/30 05:50:52;;;;;;;1999.90;999.90;;;15.30;99.90;;;;;;5035253;28;20467;-67
2023/03/30 05:53:18;;;;;;;1999.90;999.90;;;15.40;99.90;;;;;;5034803;28;20896;-68
2023/03/30 05:55:45;;;;;;;1999.90;999.90;;;15.30;99.90;;;;;;5035276;28;20168;-67
2023/03/30 05:58:11;;;;;;;1999.90;999.90;;;15.20;99.90;;;;;;5035116;28;20189;-68
2023/03/30 06:00:40;;;;;;;1999.90;999.90;;;15.20;99.90;;;;;;5035218;28;20400;-68
2023/03/30 06:03:09;;;;;;;1999.90;999.90;;;15.20;99.90;;;;;;5034835;28;20465;-68
2023/03/30 06:05:37;;;;;;;1999.90;999.90;;;15.20;99.90;;;;;;5034924;28;20453;-66
2023/03/30 06:08:03;;;;;;;1999.90;999.90;;;15.20;99.90;;;;;;5035122;28;20430;-67
2023/03/30 06:10:29;;;;;;;1999.90;999.90;;;15.20;99.90;;;;;;5034933;28;20407;-68
2023/03/30 06:12:55;;;;;;;1999.90;999.90;;;15.20;99.90;;;;;;5034789;28;20766;-67
2023/03/30 06:15:21;;;;;;;1999.90;999.90;;;15.20;99.90;;;;;;5035012;28;20172;-66
2023/03/30 06:17:46;;;;;;;1999.90;999.90;;;15.30;99.90;;;;;;5034797;28;20978;-67
2023/03/30 06:20:12;;;;;;;1999.90;999.90;;;15.30;99.90;;;;;;5035042;28;20170;-67
2023/03/30 06:22:40;;;;;;;1999.90;999.90;;;15.30;99.90;;;;;;5034487;28;20178;-68
2023/03/30 06:25:07;;;;;;;1999.90;999.90;;;15.20;99.90;;;;;;5034612;28;20264;-68
2023/03/30 06:27:33;;;;;;;1999.90;999.90;;;15.30;99.90;;;;;;5034844;28;20464;-67
2023/03/30 06:30:00;;;;;;;1999.90;999.90;;;15.30;99.90;;;;;;5034298;28;20468;-67
2023/03/30 06:32:26;;;;;;;1999.90;999.90;;;15.30;99.90;;;;;;5033940;28;20403;-68
2023/03/30 06:34:52;;;;;;;1999.90;999.90;;;15.30;99.90;;;;;;5031970;28;20257;-68
2023/03/30 06:37:19;;;;;;;1999.90;999.90;;;15.30;99.90;;;;;;5032154;28;20518;-68
2023/03/30 06:39:45;;;;;;;1999.90;999.90;;;15.40;99.90;;;;;;5032527;28;20421;-68
2023/03/30 06:42:11;;;;;;;1999.90;999.90;;;15.40;99.90;;;;;;5032810;28;20410;-68
2023/03/30 06:44:37;;;;;;;1999.90;999.90;;;15.30;99.90;;;;;;5032607;28;20410;-68
2023/03/30 06:47:04;;;;;;;1999.90;999.90;;;15.30;99.90;;;;;;5031919;28;20878;-68
2023/03/30 06:49:30;;;;;;;1999.90;999.90;;;15.40;99.90;;;;;;5032258;28;20832;-68
2023/03/30 06:51:56;;;;;;;1999.90;999.90;;;15.40;99.90;;;;;;5032728;28;20419;-66
2023/03/30 06:54:23;;;;;;;1999.90;999.90;;;15.40;99.90;;;;;;5034521;28;20896;-68
2023/03/30 06:56:49;;;;;;;1999.90;999.90;;;15.40;99.90;;;;;;5034104;28;20212;-67
2023/03/30 06:59:15;;;;;;;1999.90;999.90;;;15.40;99.90;;;;;;5034481;28;20785;-67
2023/03/30 07:01:41;;;;;;;1999.90;999.90;;;15.50;99.90;;;;;;5034167;28;20494;-67
2023/03/30 07:04:07;;;;;;;1999.90;999.90;;;15.40;99.90;;;;;;5033943;28;20449;-67
2023/03/30 07:06:33;;;;;;;1999.90;999.90;;;15.40;99.90;;;;;;5033999;28;20485;-66
2023/03/30 07:08:59;;;;;;;1999.90;999.90;;;15.40;99.90;;;;;;5034220;28;20420;-67
2023/03/30 07:11:25;;;;;;;1999.90;999.90;;;15.40;99.90;;;;;;5037291;28;20418;-67
2023/03/30 07:13:50;;;;;;;1999.90;999.90;;;15.40;99.90;;;;;;5037503;28;20472;-67
2023/03/30 07:16:16;;;;;;;1999.90;999.90;;;15.40;99.90;;;;;;5037983;28;20230;-67
2023/03/30 07:18:42;;;;;;;1999.90;999.90;;;15.40;99.90;;;;;;5038048;28;20768;-67
2023/03/30 07:21:08;;;;;;;1999.90;999.90;;;15.20;99.90;;;;;;5037321;28;20183;-67
2023/03/30 07:23:34;;;;;;;1999.90;999.90;;;15.10;99.90;;;;;;5037566;28;20179;-66
2023/03/30 07:26:00;;;;;;;1999.90;999.90;;;15.10;99.90;;;;;;5035774;28;20442;-68
2023/03/30 07:28:26;;;;;;;1999.90;999.90;;;15.10;99.90;;;;;;5035579;28;20416;-68
2023/03/30 07:30:51;;;;;;;1999.90;999.90;;;15.20;99.90;;;;;;5035443;28;20163;-68
2023/03/30 07:33:17;;;;;;;1999.90;999.90;;;15.20;99.90;;;;;;5035248;28;20173;-68
2023/03/30 07:35:44;;;;;;;1999.90;999.90;;;15.20;99.90;;;;;;5035456;28;20555;-68
2023/03/30 07:38:11;;;;;;;1999.90;999.90;;;15.20;99.90;;;;;;5035047;28;20200;-68
2023/03/30 07:40:36;;;;;;;1999.90;999.90;;;15.40;99.90;;;;;;5035256;28;20422;-68
2023/03/30 07:43:02;;;;;;;1999.90;999.90;;;15.50;99.90;;;;;;5035030;28;20406;-68
2023/03/30 07:45:28;;;;;;;1999.90;999.90;;;15.60;99.90;;;;;;5035097;28;20186;-68
2023/03/30 07:47:53;;;;;;;1999.90;999.90;;;15.60;99.90;;;;;;5034923;28;20491;-68
2023/03/30 07:50:20;;;;;;;1999.90;999.90;;;15.60;99.90;;;;;;5035116;28;20614;-67
2023/03/30 07:52:45;;;;;;;1999.90;999.90;;;15.60;99.90;;;;;;5034811;28;20655;-68
2023/03/30 07:55:11;;;;;;;1999.90;999.90;;;15.60;99.90;;;;;;5035094;28;20414;-68
2023/03/30 07:57:37;;;;;;;1999.90;999.90;;;15.50;99.90;;;;;;5034632;28;20209;-67
2023/03/30 08:00:09;;;;;;;1999.90;999.90;;;15.50;99.90;;;;;;5035212;28;20480;-68
2023/03/30 08:02:35;;;;;;;1999.90;999.90;;;15.50;99.90;;;;;;5034903;28;20192;-68
2023/03/30 08:05:01;;;;;;;1999.90;999.90;;;15.40;99.90;;;;;;5034778;28;20432;-68
2023/03/30 08:07:27;;;;;;;1999.90;999.90;;;15.50;99.90;;;;;;5034550;28;20464;-68
2023/03/30 08:09:53;;;;;;;1999.90;999.90;;;15.50;99.90;;;;;;5034822;28;20176;-67
2023/03/30 08:12:19;;;;;;;1999.90;999.90;;;15.50;99.90;;;;;;5034606;28;20413;-68
2023/03/30 08:14:45;;;;;;;1999.90;999.90;;;15.40;99.90;;;;;;5034250;28;20195;-68
2023/03/30 08:17:11;;;;;;;1999.90;999.90;;;15.40;99.90;;;;;;5034059;28;20228;-68
2023/03/30 08:19:37;;;;;;;1999.90;999.90;;;15.30;99.90;;;;;;5034419;28;20232;-68
2023/03/30 08:22:02;;;;;;;1999.90;999.90;;;15.30;99.90;;;;;;5033362;28;20410;-67
2023/03/30 08:24:28;;;;;;;1999.90;999.90;;;15.20;99.90;;;;;;5034616;28;20914;-68
2023/03/30 08:26:54;;;;;;;1999.90;999.90;;;15.10;99.90;;;;;;5034122;28;20742;-68
2023/03/30 08:29:20;;;;;;;1999.90;999.90;;;15.10;99.90;;;;;;5034614;28;20409;-68
2023/03/30 08:31:46;;;;;;;1999.90;999.90;;;15.10;99.90;;;;;;5034393;28;20249;-68
2023/03/30 08:34:11;;;;;;;1999.90;999.90;;;15.00;99.90;;;;;;5034421;28;20241;-68
2023/03/30 08:36:37;;;;;;;1999.90;999.90;;;15.00;99.90;;;;;;5034128;28;20438;-68
2023/03/30 08:39:03;;;;;;;1999.90;999.90;;;14.90;99.90;;;;;;5034218;28;20632;-68
2023/03/30 08:41:51;;;;;;;1999.90;999.90;;;15.00;99.90;;;;;;5034058;28;20180;-68
2023/03/30 08:44:30;;;;;;;1999.90;999.90;;;14.90;99.90;;;;;;5033957;28;20398;-67
2023/03/30 08:46:57;;;;;;;1999.90;999.90;;;14.90;99.90;;;;;;5033871;28;20514;-68
2023/03/30 08:49:25;;;;;;;1999.90;999.90;;;14.90;99.90;;;;;;5034164;28;20866;-67
2023/03/30 08:51:52;;;;;;;1999.90;999.90;;;14.90;99.90;;;;;;5033847;28;20438;-67
2023/03/30 08:54:20;;;;;;;1999.90;999.90;;;15.00;99.90;;;;;;5033815;28;20463;-68
2023/03/30 08:56:51;;;;;;;1999.90;999.90;;;15.00;99.90;;;;;;5033614;28;20498;-68
2023/03/30 08:59:35;;;;;;;1999.90;999.90;;;15.10;99.90;;;;;;5033705;28;20414;-68
2023/03/30 09:02:26;;;;;;;1999.90;999.90;;;15.10;99.90;;;;;;5033480;28;20431;-68
2023/03/30 09:05:21;;;;;;;1999.90;999.90;;;15.10;99.90;;;;;;5033453;28;20399;-68
2023/03/30 09:08:09;;;;;;;1999.90;999.90;;;15.00;99.90;;;;;;5055926;28;20441;-67
2023/03/30 09:10:39;;;;;;;1999.90;999.90;;;14.90;99.90;;;;;;5033611;28;20576;-67
2023/03/30 09:13:06;;;;;;;1999.90;999.90;;;14.60;99.90;;;;;;5033342;28;20415;-68
2023/03/30 09:15:41;;;;;;;1999.90;999.90;;;14.20;99.90;;;;;;5027657;28;20418;-70
2023/03/30 09:18:29;;;;;;;1999.90;999.90;;;13.50;99.90;;;;;;5047225;28;20453;-69
2023/03/30 09:20:58;;;;;;;1999.90;999.90;;;12.90;99.90;;;;;;5032368;28;20561;-69
2023/03/30 09:23:28;;;;;;;1999.90;999.90;;;12.40;99.90;;;;;;5032069;28;20396;-68
2023/03/30 09:25:57;;;;;;;1999.90;999.90;;;11.70;99.90;;;;;;5032134;28;20446;-68
2023/03/30 09:28:40;;;;;;;1999.90;999.90;;;11.20;99.90;;;;;;5032904;28;20419;-71
2023/03/30 09:31:09;;;;;;;1999.90;999.90;;;10.80;99.90;;;;;;5031643;28;20907;-68
2023/03/30 09:33:45;;;;;;;1999.90;999.90;;;10.60;99.90;;;;;;5031486;28;20518;-68
2023/03/30 09:36:36;;;;;;;1999.90;999.90;;;10.40;99.90;;;;;;5032441;28;20414;-68
2023/03/30 09:39:09;;;;;;;1999.90;999.90;;;10.20;99.90;;;;;;5032887;28;20485;-68
2023/03/30 09:41:53;;;;;;;1999.90;999.90;;;10.10;99.90;;;;;;5032544;28;20422;-69
2023/03/30 09:44:29;;;;;;;1999.90;999.90;;;10.10;99.90;;;;;;5031881;28;20967;-70
2023/03/30 09:46:58;;;;;;;1999.90;999.90;;;10.10;99.90;;;;;;5032525;28;20594;-69
2023/03/30 09:49:28;;;;;;;1999.90;999.90;;;10.10;99.90;;;;;;5032423;28;20403;-69
2023/03/30 09:52:05;;;;;;;1999.90;999.90;;;10.20;99.90;;;;;;5031625;28;20406;-71
2023/03/30 09:54:39;;;;;;;1999.90;999.90;;;10.30;99.90;;;;;;5031985;28;20826;-72
2023/03/30 09:57:21;;;;;;;1999.90;999.90;;;10.30;99.90;;;;;;5031025;28;21006;-73
2023/03/30 09:59:47;;;;;;;1999.90;999.90;;;10.30;99.90;;;;;;5030319;28;20442;-74
2023/03/30 10:02:16;;;;;;;1999.90;999.90;;;10.50;99.90;;;;;;5030844;28;20423;-73
2023/03/30 10:05:05;;;;;;;1999.90;999.90;;;10.50;99.90;;;;;;5030322;28;20514;-74
2023/03/30 10:07:41;;;;;;;1999.90;999.90;;;11.10;99.90;;;;;;5030052;28;21099;-74
2023/03/30 10:10:19;;;;;;;1999.90;999.90;;;10.80;99.90;;;;;;5030991;28;20568;-76
2023/03/30 10:12:47;;;;;;;1999.90;999.90;;;11.10;99.90;;;;;;5031895;28;20406;-76
2023/03/30 10:15:19;;;;;;;1999.90;999.90;;;11.10;99.90;;;;;;5031437;28;20408;-75
2023/03/30 10:17:47;;;;;;;1999.90;999.90;;;11.10;99.90;;;;;;5031766;28;20845;-75
2023/03/30 10:20:20;;;;;;;1999.90;999.90;;;11.30;99.90;;;;;;5032128;28;20402;-76
2023/03/30 10:22:54;;;;;;;1999.90;999.90;;;11.50;99.90;;;;;;5031291;28;20401;-75
2023/03/30 10:25:23;;;;;;;1999.90;999.90;;;11.70;99.90;;;;;;5031710;28;20494;-75
2023/03/30 10:27:52;;;;;;;1999.90;999.90;;;12.10;99.90;;;;;;5031605;28;20443;-75
2023/03/30 10:30:20;;;;;;;1999.90;999.90;;;12.40;99.90;;;;;;5031289;28;20426;-75
2023/03/30 10:32:46;;;;;;;1999.90;999.90;;;12.70;99.90;;;;;;5031604;28;20820;-75
2023/03/30 10:35:18;;;;;;;1999.90;999.90;;;12.90;99.90;;;;;;5031622;28;20454;-75
2023/03/30 10:37:46;;;;;;;1999.90;999.90;;;13.10;99.90;;;;;;5031325;28;20442;-74
2023/03/30 10:40:26;;;;;;;1999.90;999.90;;;13.20;99.90;;;;;;5031376;28;20401;-74
2023/03/30 10:42:55;;;;;;;1999.90;999.90;;;13.30;99.90;;;;;;5031441;28;20431;-74
2023/03/30 10:45:31;;;;;;;1999.90;999.90;;;13.40;99.90;;;;;;5030526;28;20425;-74
2023/03/30 10:48:23;;;;;;;1999.90;999.90;;;13.40;99.90;;;;;;5031409;28;21005;-74
2023/03/30 10:51:07;;;;;;;1999.90;999.90;;;13.60;99.90;;;;;;5030992;28;20397;-74
2023/03/30 10:53:40;;;;;;;1999.90;999.90;;;13.70;99.90;;;;;;5031199;28;20384;-74
2023/03/30 10:56:11;;;;;;;1999.90;999.90;;;13.80;99.90;;;;;;5031395;28;20398;-74
2023/03/30 10:59:12;;;;;;;1999.90;999.90;;;14.00;99.90;;;;;;5030814;28;20418;-74
2023/03/30 11:01:48;;;;;;;1999.90;999.90;;;14.10;99.90;;;;;;5031259;28;20413;-74
2023/03/30 11:04:42;;;;;;;1999.90;999.90;;;14.20;99.90;;;;;;5030913;28;20406;-74
2023/03/30 11:07:22;;;;;;;1999.90;999.90;;;14.20;99.90;;;;;;5028182;28;20539;-73
2023/03/30 11:09:53;;;;;;;1999.90;999.90;;;14.00;99.90;;;;;;5031279;28;20775;-74
2023/03/30 11:12:21;;;;;;;1999.90;999.90;;;13.70;99.90;;;;;;5031320;28;20961;-74
2023/03/30 11:14:59;;;;;;;1999.90;999.90;;;13.60;99.90;;;;;;5030453;28;20407;-73
2023/03/30 11:17:31;;;;;;;1999.90;999.90;;;13.50;99.90;;;;;;5030907;28;20878;-74
2023/03/30 11:20:05;;;;;;;1999.90;999.90;;;13.50;99.90;;;;;;5030735;28;20405;-73
2023/03/30 11:22:47;;;;;;;1999.90;999.90;;;13.60;99.90;;;;;;5031493;28;20401;-73
2023/03/30 11:25:22;;;;;;;1999.90;999.90;;;13.70;99.90;;;;;;5031346;28;20982;-73
2023/03/30 11:28:10;;;;;;;1999.90;999.90;;;13.90;99.90;;;;;;5030410;28;20976;-73
2023/03/30 11:30:37;;;;;;;1999.90;999.90;;;14.10;99.90;;;;;;5031328;28;20541;-73
2023/03/30 11:33:33;;;;;;;1999.90;999.90;;;14.20;99.90;;;;;;5030896;28;20423;-74
2023/03/30 11:36:05;;;;;;;1999.90;999.90;;;14.60;99.90;;;;;;5030512;28;20394;-74
2023/03/30 11:39:02;;;;;;;1999.90;999.90;;;15.00;99.90;;;;;;5030811;28;21028;-73
2023/03/30 11:41:39;;;;;;;1999.90;999.90;;;15.20;99.90;;;;;;5031668;28;20397;-74
2023/03/30 11:44:08;;;;;;;1999.90;999.90;;;15.20;99.90;;;;;;5030686;28;20425;-75
2023/03/30 11:46:46;;;;;;;1999.90;999.90;;;15.20;99.90;;;;;;5030501;28;20468;-74
2023/03/30 11:49:23;;;;;;;1999.90;999.90;;;15.20;99.90;;;;;;5023378;28;20488;-72
2023/03/30 11:52:39;;;;;;;1999.90;999.90;;;15.40;99.90;;;;;;5030561;28;20407;-74
2023/03/30 11:55:31;;;;;;;1999.90;999.90;;;16.00;99.90;;;;;;4969928;28;20417;-73
2023/03/30 11:58:10;;;;;;;1999.90;999.90;;;16.00;99.90;;;;;;5032417;28;20434;-73
2023/03/30 12:00:45;;;;;;;1999.90;999.90;;;16.00;99.90;;;;;;5034729;28;20407;-74
2023/03/30 12:03:37;;;;;;;1999.90;999.90;;;16.00;99.90;;;;;;5034192;28;20497;-72
2023/03/30 12:06:30;;;;;;;1999.90;999.90;;;15.90;99.90;;;;;;5033681;28;20435;-72
2023/03/30 12:09:18;;;;;;;1999.90;999.90;;;16.20;99.90;;;;;;5034608;28;20906;-72
2023/03/30 12:12:14;;;;;;;1999.90;999.90;;;16.80;99.90;;;;;;5034107;28;20409;-74
2023/03/30 12:14:58;;;;;;;1999.90;999.90;;;16.40;99.90;;;;;;5029230;28;20818;-72
2023/03/30 12:17:42;;;;;;;1999.90;999.90;;;15.90;99.90;;;;;;5033766;28;20449;-73